sensor_id;sensor_type;location;lat;lon;timestamp;P1;durP1;ratioP1;P2;durP2;ratioP2
35679;SDS011;21803;53.586;10.040;2023-12-07T00:02:09;5.40;;;3.57;;
35679;SDS011;21803;53.586;10.040;2023-12-07T00:04:35;5.43;;;3.50;;
35679;SDS011;21803;53.586;10.040;2023-12-07T00:07:00;5.40;;;3.43;;
35679;SDS011;21803;53.586;10.040;2023-12-07T00:09:26;6.63;;;3.97;;
35679;SDS011;21803;53.586;10.040;2023-12-07T00:11:51;5.17;;;3.60;;
35679;SDS011;21803;53.586;10.040;2023-12-07T00:14:17;6.50;;;3.67;;
35679;SDS011;21803;53.586;10.040;2023-12-07T00:16:42;4.57;;;3.80;;
35679;SDS011;21803;53.586;10.040;2023-12-07T00:19:08;5.00;;;3.73;;
35679;SDS011;21803;53.586;10.040;2023-12-07T00:21:33;5.10;;;3.47;;
35679;SDS011;21803;53.586;10.040;2023-12-07T00:23:59;4.47;;;3.50;;
35679;SDS011;21803;53.586;10.040;2023-12-07T00:26:26;5.20;;;3.60;;
35679;SDS011;21803;53.586;10.040;2023-12-07T00:28:51;5.13;;;3.87;;
35679;SDS011;21803;53.586;10.040;2023-12-07T00:31:17;4.93;;;3.37;;
35679;SDS011;21803;53.586;10.040;2023-12-07T00:33:42;5.33;;;3.87;;
35679;SDS011;21803;53.586;10.040;2023-12-07T00:36:08;5.57;;;4.10;;
35679;SDS011;21803;53.586;10.040;2023-12-07T00:38:33;4.40;;;3.27;;
35679;SDS011;21803;53.586;10.040;2023-12-07T00:40:59;5.50;;;3.90;;
35679;SDS011;21803;53.586;10.040;2023-12-07T00:43:24;5.40;;;3.60;;
35679;SDS011;21803;53.586;10.040;2023-12-07T00:45:50;4.37;;;3.40;;
35679;SDS011;21803;53.586;10.040;2023-12-07T00:48:16;5.27;;;3.60;;
35679;SDS011;21803;53.586;10.040;2023-12-07T00:50:41;4.53;;;3.37;;
35679;SDS011;21803;53.586;10.040;2023-12-07T00:53:07;4.50;;;3.70;;
35679;SDS011;21803;53.586;10.040;2023-12-07T00:55:33;5.00;;;3.57;;
35679;SDS011;21803;53.586;10.040;2023-12-07T00:57:59;4.27;;;3.27;;
35679;SDS011;21803;53.586;10.040;2023-12-07T01:00:26;4.70;;;3.57;;
35679;SDS011;21803;53.586;10.040;2023-12-07T01:02:52;6.33;;;3.90;;
35679;SDS011;21803;53.586;10.040;2023-12-07T01:05:17;4.63;;;3.43;;
35679;SDS011;21803;53.586;10.040;2023-12-07T01:07:43;5.73;;;3.73;;
35679;SDS011;21803;53.586;10.040;2023-12-07T01:10:08;4.93;;;3.47;;
35679;SDS011;21803;53.586;10.040;2023-12-07T01:12:34;4.07;;;3.10;;
35679;SDS011;21803;53.586;10.040;2023-12-07T01:15:00;5.43;;;3.73;;
35679;SDS011;21803;53.586;10.040;2023-12-07T01:17:26;6.60;;;3.77;;
35679;SDS011;21803;53.586;10.040;2023-12-07T01:19:51;4.97;;;3.43;;
35679;SDS011;21803;53.586;10.040;2023-12-07T01:22:17;5.53;;;3.63;;
35679;SDS011;21803;53.586;10.040;2023-12-07T01:24:42;5.27;;;3.67;;
35679;SDS011;21803;53.586;10.040;2023-12-07T01:27:09;4.00;;;3.30;;
35679;SDS011;21803;53.586;10.040;2023-12-07T01:29:34;4.80;;;3.57;;
35679;SDS011;21803;53.586;10.040;2023-12-07T01:32:00;4.70;;;3.80;;
35679;SDS011;21803;53.586;10.040;2023-12-07T01:34:25;5.30;;;3.73;;
35679;SDS011;21803;53.586;10.040;2023-12-07T01:36:51;4.97;;;3.43;;
35679;SDS011;21803;53.586;10.040;2023-12-07T01:39:16;4.80;;;3.27;;
35679;SDS011;21803;53.586;10.040;2023-12-07T01:41:42;4.30;;;3.13;;
35679;SDS011;21803;53.586;10.040;2023-12-07T01:44:08;4.97;;;3.77;;
35679;SDS011;21803;53.586;10.040;2023-12-07T01:46:34;4.63;;;3.33;;
35679;SDS011;21803;53.586;10.040;2023-12-07T01:49:00;6.20;;;3.90;;
35679;SDS011;21803;53.586;10.040;2023-12-07T01:51:26;4.57;;;3.77;;
35679;SDS011;21803;53.586;10.040;2023-12-07T01:53:52;4.57;;;3.30;;
35679;SDS011;21803;53.586;10.040;2023-12-07T01:56:18;4.73;;;3.43;;
35679;SDS011;21803;53.586;10.040;2023-12-07T01:58:44;4.17;;;3.33;;
35679;SDS011;21803;53.586;10.040;2023-12-07T02:01:10;5.23;;;3.60;;
35679;SDS011;21803;53.586;10.040;2023-12-07T02:03:39;5.53;;;4.00;;
35679;SDS011;21803;53.586;10.040;2023-12-07T02:06:05;4.97;;;3.53;;
35679;SDS011;21803;53.586;10.040;2023-12-07T02:08:31;4.53;;;3.50;;
35679;SDS011;21803;53.586;10.040;2023-12-07T02:10:56;4.57;;;3.40;;
35679;SDS011;21803;53.586;10.040;2023-12-07T02:13:22;4.77;;;3.57;;
35679;SDS011;21803;53.586;10.040;2023-12-07T02:15:48;4.07;;;3.33;;
35679;SDS011;21803;53.586;10.040;2023-12-07T02:18:24;4.93;;;3.60;;
35679;SDS011;21803;53.586;10.040;2023-12-07T02:20:58;4.70;;;3.50;;
35679;SDS011;21803;53.586;10.040;2023-12-07T02:23:32;4.67;;;3.50;;
35679;SDS011;21803;53.586;10.040;2023-12-07T02:28:45;4.67;;;3.50;;
35679;SDS011;21803;53.586;10.040;2023-12-07T02:31:10;4.17;;;3.30;;
35679;SDS011;21803;53.586;10.040;2023-12-07T02:33:36;4.83;;;3.53;;
35679;SDS011;21803;53.586;10.040;2023-12-07T02:36:01;5.47;;;3.57;;
35679;SDS011;21803;53.586;10.040;2023-12-07T02:38:27;5.03;;;3.50;;
35679;SDS011;21803;53.586;10.040;2023-12-07T02:40:54;4.67;;;3.33;;
35679;SDS011;21803;53.586;10.040;2023-12-07T02:43:20;4.70;;;3.50;;
35679;SDS011;21803;53.586;10.040;2023-12-07T02:45:47;4.33;;;3.33;;
35679;SDS011;21803;53.586;10.040;2023-12-07T02:48:13;6.03;;;4.00;;
35679;SDS011;21803;53.586;10.040;2023-12-07T02:50:39;5.17;;;3.40;;
35679;SDS011;21803;53.586;10.040;2023-12-07T02:53:05;4.10;;;3.10;;
35679;SDS011;21803;53.586;10.040;2023-12-07T02:55:30;4.77;;;3.67;;
35679;SDS011;21803;53.586;10.040;2023-12-07T02:57:56;4.90;;;3.63;;
35679;SDS011;21803;53.586;10.040;2023-12-07T03:00:21;4.57;;;3.13;;
35679;SDS011;21803;53.586;10.040;2023-12-07T03:02:47;5.27;;;3.40;;
35679;SDS011;21803;53.586;10.040;2023-12-07T03:05:13;4.30;;;3.40;;
35679;SDS011;21803;53.586;10.040;2023-12-07T03:07:38;6.10;;;3.60;;
35679;SDS011;21803;53.586;10.040;2023-12-07T03:10:04;4.30;;;3.23;;
35679;SDS011;21803;53.586;10.040;2023-12-07T03:12:30;4.80;;;3.30;;
35679;SDS011;21803;53.586;10.040;2023-12-07T03:14:56;5.57;;;3.60;;
35679;SDS011;21803;53.586;10.040;2023-12-07T03:17:21;4.43;;;3.00;;
35679;SDS011;21803;53.586;10.040;2023-12-07T03:19:47;5.37;;;3.80;;
35679;SDS011;21803;53.586;10.040;2023-12-07T03:22:12;4.17;;;3.03;;
35679;SDS011;21803;53.586;10.040;2023-12-07T03:24:38;4.37;;;2.97;;
35679;SDS011;21803;53.586;10.040;2023-12-07T03:27:05;3.97;;;3.30;;
35679;SDS011;21803;53.586;10.040;2023-12-07T03:29:31;4.47;;;3.13;;
35679;SDS011;21803;53.586;10.040;2023-12-07T03:31:57;4.67;;;3.33;;
35679;SDS011;21803;53.586;10.040;2023-12-07T03:34:23;4.70;;;3.50;;
35679;SDS011;21803;53.586;10.040;2023-12-07T03:36:49;4.13;;;3.10;;
35679;SDS011;21803;53.586;10.040;2023-12-07T03:39:15;4.30;;;3.27;;
35679;SDS011;21803;53.586;10.040;2023-12-07T03:41:43;4.23;;;3.33;;
35679;SDS011;21803;53.586;10.040;2023-12-07T03:44:09;4.40;;;3.03;;
35679;SDS011;21803;53.586;10.040;2023-12-07T03:46:35;4.60;;;3.07;;
35679;SDS011;21803;53.586;10.040;2023-12-07T03:49:00;4.90;;;3.77;;
35679;SDS011;21803;53.586;10.040;2023-12-07T03:51:26;4.20;;;3.27;;
35679;SDS011;21803;53.586;10.040;2023-12-07T03:53:52;4.23;;;3.20;;
35679;SDS011;21803;53.586;10.040;2023-12-07T03:56:23;3.63;;;2.90;;
35679;SDS011;21803;53.586;10.040;2023-12-07T03:58:53;4.87;;;3.27;;
35679;SDS011;21803;53.586;10.040;2023-12-07T04:01:22;5.13;;;3.30;;
35679;SDS011;21803;53.586;10.040;2023-12-07T04:03:49;3.80;;;3.17;;
35679;SDS011;21803;53.586;10.040;2023-12-07T04:06:15;4.83;;;3.60;;
35679;SDS011;21803;53.586;10.040;2023-12-07T04:08:41;4.70;;;3.30;;
35679;SDS011;21803;53.586;10.040;2023-12-07T04:11:07;4.27;;;3.07;;
35679;SDS011;21803;53.586;10.040;2023-12-07T04:13:33;4.00;;;3.00;;
35679;SDS011;21803;53.586;10.040;2023-12-07T04:15:58;4.13;;;2.77;;
35679;SDS011;21803;53.586;10.040;2023-12-07T04:18:24;3.70;;;3.03;;
35679;SDS011;21803;53.586;10.040;2023-12-07T04:20:49;3.87;;;2.90;;
35679;SDS011;21803;53.586;10.040;2023-12-07T04:23:15;3.67;;;2.90;;
35679;SDS011;21803;53.586;10.040;2023-12-07T04:25:40;4.73;;;3.00;;
35679;SDS011;21803;53.586;10.040;2023-12-07T04:28:06;4.03;;;3.00;;
35679;SDS011;21803;53.586;10.040;2023-12-07T04:30:31;3.90;;;3.07;;
35679;SDS011;21803;53.586;10.040;2023-12-07T04:32:57;4.67;;;3.40;;
35679;SDS011;21803;53.586;10.040;2023-12-07T04:35:22;4.27;;;3.03;;
35679;SDS011;21803;53.586;10.040;2023-12-07T04:37:48;4.23;;;3.00;;
35679;SDS011;21803;53.586;10.040;2023-12-07T04:40:13;4.67;;;3.30;;
35679;SDS011;21803;53.586;10.040;2023-12-07T04:42:39;3.33;;;2.90;;
35679;SDS011;21803;53.586;10.040;2023-12-07T04:45:05;4.10;;;3.07;;
35679;SDS011;21803;53.586;10.040;2023-12-07T04:47:31;3.83;;;2.87;;
35679;SDS011;21803;53.586;10.040;2023-12-07T04:49:58;4.37;;;3.40;;
35679;SDS011;21803;53.586;10.040;2023-12-07T04:52:23;3.73;;;3.00;;
35679;SDS011;21803;53.586;10.040;2023-12-07T04:54:49;3.77;;;3.00;;
35679;SDS011;21803;53.586;10.040;2023-12-07T04:57:14;3.53;;;3.10;;
35679;SDS011;21803;53.586;10.040;2023-12-07T04:59:40;3.80;;;3.03;;
35679;SDS011;21803;53.586;10.040;2023-12-07T05:02:05;3.73;;;3.10;;
35679;SDS011;21803;53.586;10.040;2023-12-07T05:04:31;3.90;;;2.97;;
35679;SDS011;21803;53.586;10.040;2023-12-07T05:06:58;3.37;;;2.90;;
35679;SDS011;21803;53.586;10.040;2023-12-07T05:09:24;3.57;;;2.73;;
35679;SDS011;21803;53.586;10.040;2023-12-07T05:11:51;4.07;;;2.93;;
35679;SDS011;21803;53.586;10.040;2023-12-07T05:14:16;4.10;;;3.07;;
35679;SDS011;21803;53.586;10.040;2023-12-07T05:16:42;4.00;;;2.93;;
35679;SDS011;21803;53.586;10.040;2023-12-07T05:19:07;4.13;;;2.93;;
35679;SDS011;21803;53.586;10.040;2023-12-07T05:21:33;3.37;;;2.80;;
35679;SDS011;21803;53.586;10.040;2023-12-07T05:23:58;3.80;;;2.60;;
35679;SDS011;21803;53.586;10.040;2023-12-07T05:26:23;3.63;;;2.93;;
35679;SDS011;21803;53.586;10.040;2023-12-07T05:28:49;3.37;;;2.63;;
35679;SDS011;21803;53.586;10.040;2023-12-07T05:31:16;4.30;;;3.17;;
35679;SDS011;21803;53.586;10.040;2023-12-07T05:33:42;3.57;;;2.90;;
35679;SDS011;21803;53.586;10.040;2023-12-07T05:36:08;3.60;;;2.70;;
35679;SDS011;21803;53.586;10.040;2023-12-07T05:38:34;3.23;;;2.50;;
35679;SDS011;21803;53.586;10.040;2023-12-07T05:40:59;4.47;;;3.30;;
35679;SDS011;21803;53.586;10.040;2023-12-07T05:43:25;4.17;;;2.93;;
35679;SDS011;21803;53.586;10.040;2023-12-07T05:45:50;3.83;;;2.83;;
35679;SDS011;21803;53.586;10.040;2023-12-07T05:48:16;3.80;;;2.70;;
35679;SDS011;21803;53.586;10.040;2023-12-07T05:50:41;4.37;;;2.83;;
35679;SDS011;21803;53.586;10.040;2023-12-07T05:53:07;3.73;;;2.90;;
35679;SDS011;21803;53.586;10.040;2023-12-07T05:55:34;3.40;;;2.83;;
35679;SDS011;21803;53.586;10.040;2023-12-07T05:57:59;3.17;;;2.60;;
35679;SDS011;21803;53.586;10.040;2023-12-07T06:00:25;3.57;;;2.70;;
35679;SDS011;21803;53.586;10.040;2023-12-07T06:02:51;3.70;;;2.70;;
35679;SDS011;21803;53.586;10.040;2023-12-07T06:05:16;3.57;;;2.77;;
35679;SDS011;21803;53.586;10.040;2023-12-07T06:07:42;3.30;;;2.60;;
35679;SDS011;21803;53.586;10.040;2023-12-07T06:10:08;3.23;;;2.60;;
35679;SDS011;21803;53.586;10.040;2023-12-07T06:12:34;3.47;;;2.60;;
35679;SDS011;21803;53.586;10.040;2023-12-07T06:14:59;3.57;;;2.87;;
35679;SDS011;21803;53.586;10.040;2023-12-07T06:17:25;3.57;;;2.70;;
35679;SDS011;21803;53.586;10.040;2023-12-07T06:19:50;2.90;;;2.40;;
35679;SDS011;21803;53.586;10.040;2023-12-07T06:22:16;3.37;;;2.70;;
35679;SDS011;21803;53.586;10.040;2023-12-07T06:24:41;3.27;;;2.47;;
35679;SDS011;21803;53.586;10.040;2023-12-07T06:27:07;3.20;;;2.67;;
35679;SDS011;21803;53.586;10.040;2023-12-07T06:29:32;3.13;;;2.60;;
35679;SDS011;21803;53.586;10.040;2023-12-07T06:31:58;3.23;;;2.40;;
35679;SDS011;21803;53.586;10.040;2023-12-07T06:34:25;2.97;;;2.60;;
35679;SDS011;21803;53.586;10.040;2023-12-07T06:36:51;3.93;;;2.50;;
35679;SDS011;21803;53.586;10.040;2023-12-07T06:39:16;3.23;;;2.50;;
35679;SDS011;21803;53.586;10.040;2023-12-07T06:41:42;3.77;;;2.80;;
35679;SDS011;21803;53.586;10.040;2023-12-07T06:44:07;2.63;;;2.43;;
35679;SDS011;21803;53.586;10.040;2023-12-07T06:46:33;3.23;;;2.70;;
35679;SDS011;21803;53.586;10.040;2023-12-07T06:48:58;3.20;;;2.47;;
35679;SDS011;21803;53.586;10.040;2023-12-07T06:51:25;3.70;;;2.57;;
35679;SDS011;21803;53.586;10.040;2023-12-07T06:53:50;3.20;;;2.40;;
35679;SDS011;21803;53.586;10.040;2023-12-07T06:56:16;3.20;;;2.80;;
35679;SDS011;21803;53.586;10.040;2023-12-07T06:58:41;3.40;;;2.40;;
35679;SDS011;21803;53.586;10.040;2023-12-07T07:01:07;4.10;;;2.80;;
35679;SDS011;21803;53.586;10.040;2023-12-07T07:03:32;3.03;;;2.40;;
35679;SDS011;21803;53.586;10.040;2023-12-07T07:05:58;3.03;;;2.43;;
35679;SDS011;21803;53.586;10.040;2023-12-07T07:08:24;3.43;;;2.60;;
35679;SDS011;21803;53.586;10.040;2023-12-07T07:10:50;3.03;;;2.40;;
35679;SDS011;21803;53.586;10.040;2023-12-07T07:13:16;3.50;;;2.70;;
35679;SDS011;21803;53.586;10.040;2023-12-07T07:15:42;2.90;;;2.20;;
35679;SDS011;21803;53.586;10.040;2023-12-07T07:18:10;3.73;;;2.60;;
35679;SDS011;21803;53.586;10.040;2023-12-07T07:20:36;3.20;;;2.70;;
35679;SDS011;21803;53.586;10.040;2023-12-07T07:23:02;2.97;;;2.67;;
35679;SDS011;21803;53.586;10.040;2023-12-07T07:25:27;3.30;;;2.90;;
35679;SDS011;21803;53.586;10.040;2023-12-07T07:27:53;2.97;;;2.40;;
35679;SDS011;21803;53.586;10.040;2023-12-07T07:30:19;3.70;;;2.90;;
35679;SDS011;21803;53.586;10.040;2023-12-07T07:32:45;3.60;;;2.53;;
35679;SDS011;21803;53.586;10.040;2023-12-07T07:35:11;3.07;;;2.60;;
35679;SDS011;21803;53.586;10.040;2023-12-07T07:37:37;2.83;;;2.33;;
35679;SDS011;21803;53.586;10.040;2023-12-07T07:40:06;3.57;;;2.80;;
35679;SDS011;21803;53.586;10.040;2023-12-07T07:42:33;3.27;;;2.50;;
35679;SDS011;21803;53.586;10.040;2023-12-07T07:44:59;2.67;;;2.20;;
35679;SDS011;21803;53.586;10.040;2023-12-07T07:47:24;3.33;;;2.50;;
35679;SDS011;21803;53.586;10.040;2023-12-07T07:49:50;2.80;;;2.50;;
35679;SDS011;21803;53.586;10.040;2023-12-07T07:52:15;3.40;;;2.50;;
35679;SDS011;21803;53.586;10.040;2023-12-07T07:54:41;3.20;;;2.50;;
35679;SDS011;21803;53.586;10.040;2023-12-07T07:57:07;3.17;;;2.53;;
35679;SDS011;21803;53.586;10.040;2023-12-07T07:59:32;3.77;;;2.70;;
35679;SDS011;21803;53.586;10.040;2023-12-07T08:01:58;2.77;;;2.40;;
35679;SDS011;21803;53.586;10.040;2023-12-07T08:04:24;3.53;;;2.50;;
35679;SDS011;21803;53.586;10.040;2023-12-07T08:06:49;3.10;;;2.50;;
35679;SDS011;21803;53.586;10.040;2023-12-07T08:09:14;2.90;;;2.30;;
35679;SDS011;21803;53.586;10.040;2023-12-07T08:11:40;3.03;;;2.40;;
35679;SDS011;21803;53.586;10.040;2023-12-07T08:14:06;3.30;;;2.50;;
35679;SDS011;21803;53.586;10.040;2023-12-07T08:16:31;3.60;;;2.70;;
35679;SDS011;21803;53.586;10.040;2023-12-07T08:18:57;3.03;;;2.43;;
35679;SDS011;21803;53.586;10.040;2023-12-07T08:21:23;3.00;;;2.60;;
35679;SDS011;21803;53.586;10.040;2023-12-07T08:23:50;2.80;;;2.50;;
35679;SDS011;21803;53.586;10.040;2023-12-07T08:26:16;3.07;;;2.30;;
35679;SDS011;21803;53.586;10.040;2023-12-07T08:28:42;3.10;;;2.50;;
35679;SDS011;21803;53.586;10.040;2023-12-07T08:31:08;3.10;;;2.70;;
35679;SDS011;21803;53.586;10.040;2023-12-07T08:33:33;2.83;;;2.47;;
35679;SDS011;21803;53.586;10.040;2023-12-07T08:35:59;3.40;;;2.60;;
35679;SDS011;21803;53.586;10.040;2023-12-07T08:38:25;3.27;;;2.60;;
35679;SDS011;21803;53.586;10.040;2023-12-07T08:40:51;3.50;;;2.40;;
35679;SDS011;21803;53.586;10.040;2023-12-07T08:43:20;3.00;;;2.70;;
35679;SDS011;21803;53.586;10.040;2023-12-07T08:45:47;3.33;;;2.70;;
35679;SDS011;21803;53.586;10.040;2023-12-07T08:48:13;3.10;;;2.47;;
35679;SDS011;21803;53.586;10.040;2023-12-07T08:50:39;3.17;;;2.43;;
35679;SDS011;21803;53.586;10.040;2023-12-07T08:53:05;3.27;;;2.40;;
35679;SDS011;21803;53.586;10.040;2023-12-07T08:55:31;2.93;;;2.50;;
35679;SDS011;21803;53.586;10.040;2023-12-07T08:57:56;3.33;;;2.53;;
35679;SDS011;21803;53.586;10.040;2023-12-07T09:00:22;2.80;;;2.37;;
35679;SDS011;21803;53.586;10.040;2023-12-07T09:02:50;3.07;;;2.33;;
35679;SDS011;21803;53.586;10.040;2023-12-07T09:05:16;3.13;;;2.30;;
35679;SDS011;21803;53.586;10.040;2023-12-07T09:07:42;2.80;;;2.30;;
35679;SDS011;21803;53.586;10.040;2023-12-07T09:10:07;2.93;;;2.43;;
35679;SDS011;21803;53.586;10.040;2023-12-07T09:12:33;2.90;;;2.40;;
35679;SDS011;21803;53.586;10.040;2023-12-07T09:15:00;2.93;;;2.40;;
35679;SDS011;21803;53.586;10.040;2023-12-07T09:17:27;3.13;;;2.67;;
35679;SDS011;21803;53.586;10.040;2023-12-07T09:19:52;3.33;;;2.60;;
35679;SDS011;21803;53.586;10.040;2023-12-07T09:22:19;3.03;;;2.43;;
35679;SDS011;21803;53.586;10.040;2023-12-07T09:24:45;3.33;;;2.50;;
35679;SDS011;21803;53.586;10.040;2023-12-07T09:27:11;2.73;;;2.40;;
35679;SDS011;21803;53.586;10.040;2023-12-07T09:29:38;3.27;;;2.77;;
35679;SDS011;21803;53.586;10.040;2023-12-07T09:32:04;3.33;;;2.83;;
35679;SDS011;21803;53.586;10.040;2023-12-07T09:34:30;3.10;;;2.50;;
35679;SDS011;21803;53.586;10.040;2023-12-07T09:37:05;3.50;;;2.47;;
35679;SDS011;21803;53.586;10.040;2023-12-07T09:39:31;3.07;;;2.40;;
35679;SDS011;21803;53.586;10.040;2023-12-07T09:41:57;3.17;;;2.60;;
35679;SDS011;21803;53.586;10.040;2023-12-07T09:44:22;2.70;;;2.43;;
35679;SDS011;21803;53.586;10.040;2023-12-07T09:46:48;3.20;;;2.60;;
35679;SDS011;21803;53.586;10.040;2023-12-07T09:49:14;3.13;;;2.50;;
35679;SDS011;21803;53.586;10.040;2023-12-07T09:51:40;3.33;;;2.67;;
35679;SDS011;21803;53.586;10.040;2023-12-07T09:54:07;3.47;;;2.73;;
35679;SDS011;21803;53.586;10.040;2023-12-07T09:56:33;3.10;;;2.60;;
35679;SDS011;21803;53.586;10.040;2023-12-07T09:58:58;3.10;;;2.80;;
35679;SDS011;21803;53.586;10.040;2023-12-07T10:01:30;3.00;;;2.60;;
35679;SDS011;21803;53.586;10.040;2023-12-07T10:04:15;3.27;;;2.60;;
35679;SDS011;21803;53.586;10.040;2023-12-07T10:06:45;2.93;;;2.37;;
35679;SDS011;21803;53.586;10.040;2023-12-07T10:09:11;3.87;;;2.50;;
35679;SDS011;21803;53.586;10.040;2023-12-07T10:11:37;3.40;;;2.60;;
35679;SDS011;21803;53.586;10.040;2023-12-07T10:14:04;3.13;;;2.57;;
35679;SDS011;21803;53.586;10.040;2023-12-07T10:16:32;3.53;;;2.60;;
35679;SDS011;21803;53.586;10.040;2023-12-07T10:19:12;2.90;;;2.60;;
35679;SDS011;21803;53.586;10.040;2023-12-07T10:21:42;3.43;;;2.60;;
35679;SDS011;21803;53.586;10.040;2023-12-07T10:24:09;3.57;;;2.90;;
35679;SDS011;21803;53.586;10.040;2023-12-07T10:26:35;2.97;;;2.47;;
35679;SDS011;21803;53.586;10.040;2023-12-07T10:29:01;2.67;;;2.43;;
35679;SDS011;21803;53.586;10.040;2023-12-07T10:31:30;3.00;;;2.43;;
35679;SDS011;21803;53.586;10.040;2023-12-07T10:33:56;3.47;;;2.67;;
35679;SDS011;21803;53.586;10.040;2023-12-07T10:36:21;3.47;;;2.77;;
35679;SDS011;21803;53.586;10.040;2023-12-07T10:38:47;4.27;;;2.90;;
35679;SDS011;21803;53.586;10.040;2023-12-07T10:41:16;3.43;;;2.60;;
35679;SDS011;21803;53.586;10.040;2023-12-07T10:43:43;3.33;;;2.63;;
35679;SDS011;21803;53.586;10.040;2023-12-07T10:46:13;3.20;;;2.70;;
35679;SDS011;21803;53.586;10.040;2023-12-07T10:48:44;3.67;;;3.07;;
35679;SDS011;21803;53.586;10.040;2023-12-07T10:53:51;3.43;;;2.83;;
35679;SDS011;21803;53.586;10.040;2023-12-07T10:56:28;3.40;;;2.77;;
35679;SDS011;21803;53.586;10.040;2023-12-07T10:58:57;4.13;;;3.17;;
35679;SDS011;21803;53.586;10.040;2023-12-07T11:01:23;3.43;;;2.73;;
35679;SDS011;21803;53.586;10.040;2023-12-07T11:03:50;3.10;;;2.70;;
35679;SDS011;21803;53.586;10.040;2023-12-07T11:06:18;3.27;;;2.80;;
35679;SDS011;21803;53.586;10.040;2023-12-07T11:08:48;3.27;;;2.60;;
35679;SDS011;21803;53.586;10.040;2023-12-07T11:14:06;2.93;;;2.57;;
35679;SDS011;21803;53.586;10.040;2023-12-07T11:16:36;3.33;;;2.80;;
35679;SDS011;21803;53.586;10.040;2023-12-07T11:19:04;3.47;;;2.80;;
35679;SDS011;21803;53.586;10.040;2023-12-07T11:21:30;3.97;;;2.77;;
35679;SDS011;21803;53.586;10.040;2023-12-07T11:23:59;3.37;;;2.80;;
35679;SDS011;21803;53.586;10.040;2023-12-07T11:26:26;3.17;;;2.70;;
35679;SDS011;21803;53.586;10.040;2023-12-07T11:28:51;3.63;;;3.00;;
35679;SDS011;21803;53.586;10.040;2023-12-07T11:31:19;3.50;;;2.60;;
35679;SDS011;21803;53.586;10.040;2023-12-07T11:33:46;3.57;;;3.00;;
35679;SDS011;21803;53.586;10.040;2023-12-07T11:36:13;3.67;;;2.80;;
35679;SDS011;21803;53.586;10.040;2023-12-07T11:39:14;3.50;;;2.80;;
35679;SDS011;21803;53.586;10.040;2023-12-07T11:41:49;4.27;;;2.97;;
35679;SDS011;21803;53.586;10.040;2023-12-07T11:44:18;3.67;;;2.90;;
35679;SDS011;21803;53.586;10.040;2023-12-07T11:46:43;3.53;;;3.20;;
35679;SDS011;21803;53.586;10.040;2023-12-07T11:49:09;3.10;;;2.80;;
35679;SDS011;21803;53.586;10.040;2023-12-07T11:51:36;3.30;;;2.70;;
35679;SDS011;21803;53.586;10.040;2023-12-07T11:54:02;2.87;;;2.57;;
35679;SDS011;21803;53.586;10.040;2023-12-07T11:56:27;3.07;;;2.57;;
35679;SDS011;21803;53.586;10.040;2023-12-07T11:58:53;3.30;;;3.00;;
35679;SDS011;21803;53.586;10.040;2023-12-07T12:01:21;3.20;;;2.47;;
35679;SDS011;21803;53.586;10.040;2023-12-07T12:03:46;3.50;;;2.90;;
35679;SDS011;21803;53.586;10.040;2023-12-07T12:06:12;3.67;;;3.03;;
35679;SDS011;21803;53.586;10.040;2023-12-07T12:08:39;3.17;;;2.67;;
35679;SDS011;21803;53.586;10.040;2023-12-07T12:11:06;3.27;;;2.60;;
35679;SDS011;21803;53.586;10.040;2023-12-07T12:13:35;3.90;;;3.03;;
35679;SDS011;21803;53.586;10.040;2023-12-07T12:16:01;3.17;;;2.83;;
35679;SDS011;21803;53.586;10.040;2023-12-07T12:18:28;3.57;;;2.70;;
35679;SDS011;21803;53.586;10.040;2023-12-07T12:20:53;3.03;;;2.70;;
35679;SDS011;21803;53.586;10.040;2023-12-07T12:23:19;2.77;;;2.43;;
35679;SDS011;21803;53.586;10.040;2023-12-07T12:25:46;3.07;;;2.70;;
35679;SDS011;21803;53.586;10.040;2023-12-07T12:28:16;3.20;;;2.77;;
35679;SDS011;21803;53.586;10.040;2023-12-07T12:30:47;3.30;;;2.57;;
35679;SDS011;21803;53.586;10.040;2023-12-07T12:33:13;3.10;;;2.70;;
35679;SDS011;21803;53.586;10.040;2023-12-07T12:35:39;3.60;;;2.70;;
35679;SDS011;21803;53.586;10.040;2023-12-07T12:38:11;3.40;;;2.93;;
35679;SDS011;21803;53.586;10.040;2023-12-07T12:40:37;2.87;;;2.57;;
35679;SDS011;21803;53.586;10.040;2023-12-07T12:43:03;4.20;;;3.33;;
35679;SDS011;21803;53.586;10.040;2023-12-07T12:45:30;3.57;;;2.90;;
35679;SDS011;21803;53.586;10.040;2023-12-07T12:47:57;3.30;;;2.80;;
35679;SDS011;21803;53.586;10.040;2023-12-07T12:50:39;2.93;;;2.60;;
35679;SDS011;21803;53.586;10.040;2023-12-07T12:53:06;2.77;;;2.50;;
35679;SDS011;21803;53.586;10.040;2023-12-07T12:55:36;3.33;;;2.83;;
35679;SDS011;21803;53.586;10.040;2023-12-07T12:58:05;3.10;;;2.70;;
35679;SDS011;21803;53.586;10.040;2023-12-07T13:00:33;3.97;;;3.20;;
35679;SDS011;21803;53.586;10.040;2023-12-07T13:03:00;3.43;;;2.60;;
35679;SDS011;21803;53.586;10.040;2023-12-07T13:05:29;3.60;;;2.73;;
35679;SDS011;21803;53.586;10.040;2023-12-07T13:07:55;3.10;;;2.47;;
35679;SDS011;21803;53.586;10.040;2023-12-07T13:10:20;3.10;;;2.80;;
35679;SDS011;21803;53.586;10.040;2023-12-07T13:12:46;3.37;;;2.90;;
35679;SDS011;21803;53.586;10.040;2023-12-07T13:15:12;2.77;;;2.40;;
35679;SDS011;21803;53.586;10.040;2023-12-07T13:17:38;3.37;;;2.77;;
35679;SDS011;21803;53.586;10.040;2023-12-07T13:20:05;3.77;;;2.97;;
35679;SDS011;21803;53.586;10.040;2023-12-07T13:22:35;3.00;;;2.70;;
35679;SDS011;21803;53.586;10.040;2023-12-07T13:25:04;2.97;;;2.70;;
35679;SDS011;21803;53.586;10.040;2023-12-07T13:27:31;3.37;;;2.67;;
35679;SDS011;21803;53.586;10.040;2023-12-07T13:30:01;3.40;;;2.83;;
35679;SDS011;21803;53.586;10.040;2023-12-07T13:32:31;2.73;;;2.47;;
35679;SDS011;21803;53.586;10.040;2023-12-07T13:34:58;3.77;;;3.07;;
35679;SDS011;21803;53.586;10.040;2023-12-07T13:37:23;3.77;;;2.70;;
35679;SDS011;21803;53.586;10.040;2023-12-07T13:39:49;3.73;;;2.80;;
35679;SDS011;21803;53.586;10.040;2023-12-07T13:42:20;3.17;;;2.67;;
35679;SDS011;21803;53.586;10.040;2023-12-07T13:44:46;3.10;;;2.80;;
35679;SDS011;21803;53.586;10.040;2023-12-07T13:47:12;2.70;;;2.47;;
35679;SDS011;21803;53.586;10.040;2023-12-07T13:49:42;2.83;;;2.50;;
35679;SDS011;21803;53.586;10.040;2023-12-07T13:52:07;2.90;;;2.60;;
35679;SDS011;21803;53.586;10.040;2023-12-07T13:54:33;3.17;;;2.80;;
35679;SDS011;21803;53.586;10.040;2023-12-07T13:57:01;3.20;;;2.67;;
35679;SDS011;21803;53.586;10.040;2023-12-07T13:59:26;3.27;;;2.83;;
35679;SDS011;21803;53.586;10.040;2023-12-07T14:01:52;2.97;;;2.63;;
35679;SDS011;21803;53.586;10.040;2023-12-07T14:04:17;3.13;;;2.83;;
35679;SDS011;21803;53.586;10.040;2023-12-07T14:06:44;3.33;;;2.33;;
35679;SDS011;21803;53.586;10.040;2023-12-07T14:09:09;4.07;;;2.87;;
35679;SDS011;21803;53.586;10.040;2023-12-07T14:11:35;3.47;;;2.97;;
35679;SDS011;21803;53.586;10.040;2023-12-07T14:14:01;3.20;;;2.90;;
35679;SDS011;21803;53.586;10.040;2023-12-07T14:16:28;3.40;;;2.80;;
35679;SDS011;21803;53.586;10.040;2023-12-07T14:18:54;3.40;;;2.60;;
35679;SDS011;21803;53.586;10.040;2023-12-07T14:21:20;3.10;;;2.60;;
35679;SDS011;21803;53.586;10.040;2023-12-07T14:23:46;3.17;;;2.87;;
35679;SDS011;21803;53.586;10.040;2023-12-07T14:26:11;3.30;;;2.70;;
35679;SDS011;21803;53.586;10.040;2023-12-07T14:28:37;3.20;;;2.70;;
35679;SDS011;21803;53.586;10.040;2023-12-07T14:31:02;4.00;;;3.07;;
35679;SDS011;21803;53.586;10.040;2023-12-07T14:33:29;2.73;;;2.43;;
35679;SDS011;21803;53.586;10.040;2023-12-07T14:35:54;3.63;;;2.80;;
35679;SDS011;21803;53.586;10.040;2023-12-07T14:38:20;3.37;;;2.77;;